Time;durP1;ratioP1;P1;durP2;ratioP2;P2;SDS_P1;SDS_P2;PMS_P1;PMS_P2;Temp;Humidity;BMP_temperature;BMP_pressure;BME280_temperature;BME280_humidity;BME280_pressure;Samples;Min_cycle;Max_cycle;Signal;HPM_P1;HPM_P2
2021/12/23 00:01:23;;;;;;;7.30;5.67;;;-1.30;99.90;;;;;;4953859;28;20194;-70
2021/12/23 00:03:49;;;;;;;6.17;4.20;;;-1.30;99.90;;;;;;4954018;28;20170;-70
2021/12/23 00:06:14;;;;;;;7.90;5.00;;;-1.20;99.90;;;;;;4953812;28;20663;-69
2021/12/23 00:08:40;;;;;;;5.67;5.27;;;-1.30;99.90;;;;;;4954212;28;20375;-70
2021/12/23 00:11:05;;;;;;;9.90;7.20;;;-1.20;99.90;;;;;;4953910;28;20606;-70
2021/12/23 00:13:33;;;;;;;18.77;4.57;;;-1.20;99.90;;;;;;4952347;28;20225;-71
2021/12/23 00:23:49;;;;;;;4.93;4.40;;;-1.30;99.90;;;;;;4953655;29;20912;-71
2021/12/23 00:26:15;;;;;;;7.03;5.17;;;-1.30;99.90;;;;;;4953456;28;20418;-69
2021/12/23 00:28:41;;;;;;;8.90;5.13;;;-1.30;99.90;;;;;;4953590;28;20281;-68
2021/12/23 00:31:07;;;;;;;8.23;5.50;;;-1.30;99.90;;;;;;4953478;28;20655;-69
2021/12/23 00:33:35;;;;;;;10.53;5.63;;;-1.30;99.90;;;;;;4953753;28;20274;-69
2021/12/23 00:36:03;;;;;;;3.23;3.03;;;-1.30;99.90;;;;;;4953367;28;20512;-68
2021/12/23 00:38:36;;;;;;;10.70;3.83;;;-1.40;99.90;;;;;;4953458;28;20429;-69
2021/12/23 00:41:03;;;;;;;3.90;3.57;;;-1.40;99.90;;;;;;4953352;28;20437;-69
2021/12/23 00:43:31;;;;;;;7.10;5.57;;;-1.40;99.90;;;;;;4953555;28;20410;-70
2021/12/23 00:45:57;;;;;;;8.67;5.50;;;-1.40;99.90;;;;;;4953435;28;20842;-69
2021/12/23 00:48:22;;;;;;;4.20;3.37;;;-1.50;99.90;;;;;;4953210;28;20500;-68
2021/12/23 00:50:48;;;;;;;8.23;6.90;;;-1.40;99.90;;;;;;4953212;28;20583;-70
2021/12/23 00:53:18;;;;;;;6.00;3.23;;;-1.50;99.90;;;;;;4952722;28;20607;-69
2021/12/23 00:55:51;;;;;;;5.90;4.10;;;-1.50;99.90;;;;;;4953189;28;20240;-71
2021/12/23 00:58:17;;;;;;;5.10;3.70;;;-1.50;99.90;;;;;;4953377;28;20446;-69
2021/12/23 01:00:43;;;;;;;4.70;4.40;;;-1.50;99.90;;;;;;4953084;28;20436;-69
2021/12/23 01:03:09;;;;;;;3.93;3.57;;;-1.40;99.90;;;;;;4953281;28;20497;-70
2021/12/23 01:05:34;;;;;;;9.67;5.27;;;-1.40;99.90;;;;;;4953171;28;20433;-70
2021/12/23 01:08:00;;;;;;;6.60;4.30;;;-1.40;99.90;;;;;;4953092;28;20190;-68
2021/12/23 01:10:26;;;;;;;5.50;3.60;;;-1.40;99.90;;;;;;4953172;28;20213;-68
2021/12/23 01:13:00;;;;;;;4.07;2.77;;;-1.40;99.90;;;;;;4953276;28;20587;-70
2021/12/23 01:15:50;;;;;;;4.07;3.67;;;-1.40;99.90;;;;;;4953123;28;20924;-70
2021/12/23 01:18:18;;;;;;;3.80;3.50;;;-1.40;99.90;;;;;;4952951;28;20505;-69
2021/12/23 01:20:53;;;;;;;4.33;4.00;;;-1.40;99.90;;;;;;4953046;28;20433;-70
2021/12/23 01:23:24;;;;;;;6.57;5.93;;;-1.50;99.90;;;;;;4952783;28;20798;-69
2021/12/23 01:25:52;;;;;;;11.50;4.50;;;-1.40;99.90;;;;;;4953063;28;20414;-68
2021/12/23 01:28:18;;;;;;;8.13;3.10;;;-1.40;99.90;;;;;;4952976;28;20537;-69
2021/12/23 01:30:43;;;;;;;4.90;4.50;;;-1.40;99.90;;;;;;4952904;28;20434;-69
2021/12/23 01:33:10;;;;;;;5.57;3.73;;;-1.40;99.90;;;;;;4952768;28;20417;-68
2021/12/23 01:35:37;;;;;;;5.13;4.40;;;-1.50;99.90;;;;;;4952588;28;20205;-69
2021/12/23 01:38:03;;;;;;;9.53;3.60;;;-1.50;99.90;;;;;;4952915;28;20767;-69
2021/12/23 01:40:30;;;;;;;7.00;4.53;;;-1.50;99.90;;;;;;4952895;28;20809;-69
2021/12/23 01:42:56;;;;;;;6.80;5.33;;;-1.50;99.90;;;;;;4952785;28;20444;-69
2021/12/23 01:45:25;;;;;;;5.03;4.73;;;-1.50;99.90;;;;;;4952478;28;20406;-70
2021/12/23 01:47:51;;;;;;;6.57;4.10;;;-1.50;99.90;;;;;;4952901;28;20866;-68
2021/12/23 01:50:20;;;;;;;7.80;5.73;;;-1.50;99.90;;;;;;4950967;28;20433;-69
2021/12/23 01:52:45;;;;;;;8.93;2.97;;;-1.50;99.90;;;;;;4953040;28;20422;-68
2021/12/23 01:55:11;;;;;;;6.43;5.70;;;-1.50;99.90;;;;;;4952505;28;20953;-69
2021/12/23 01:57:39;;;;;;;3.93;3.50;;;-1.50;99.90;;;;;;4952658;28;20175;-69
2021/12/23 02:00:09;;;;;;;5.00;4.27;;;-1.50;99.90;;;;;;4959306;28;20982;-69
2021/12/23 02:02:36;;;;;;;6.30;5.63;;;-1.50;99.90;;;;;;4971814;28;20421;-69
2021/12/23 02:05:01;;;;;;;5.27;3.90;;;-1.50;99.90;;;;;;4973859;28;20412;-69
2021/12/23 02:07:26;;;;;;;6.30;4.80;;;-1.50;99.90;;;;;;4975248;28;20427;-69
2021/12/23 02:09:55;;;;;;;5.13;3.93;;;-1.50;99.90;;;;;;4975071;28;20178;-70
2021/12/23 02:12:21;;;;;;;11.77;4.33;;;-1.50;99.90;;;;;;4974883;28;20201;-69
2021/12/23 02:14:46;;;;;;;8.13;5.37;;;-1.50;99.90;;;;;;4974722;28;20486;-69
2021/12/23 02:17:12;;;;;;;3.77;3.47;;;-1.50;99.90;;;;;;4974847;28;20405;-69
2021/12/23 02:19:37;;;;;;;12.40;4.80;;;-1.50;99.90;;;;;;4974734;28;20201;-69
2021/12/23 02:22:03;;;;;;;4.87;4.27;;;-1.60;99.90;;;;;;4974706;28;20189;-69
2021/12/23 02:24:29;;;;;;;4.83;4.47;;;-1.50;99.90;;;;;;4974744;28;20178;-69
2021/12/23 02:26:54;;;;;;;4.53;3.33;;;-1.50;99.90;;;;;;4974595;28;20504;-69
2021/12/23 02:29:20;;;;;;;5.50;3.53;;;-1.60;99.90;;;;;;4974572;28;20245;-69
2021/12/23 02:31:49;;;;;;;5.23;4.20;;;-1.60;99.90;;;;;;4974516;28;20190;-69
2021/12/23 02:34:19;;;;;;;11.03;6.13;;;-1.50;99.90;;;;;;4973561;28;20177;-69
2021/12/23 02:36:50;;;;;;;3.60;2.63;;;-1.50;99.90;;;;;;4974470;28;20460;-70
2021/12/23 02:39:15;;;;;;;4.50;3.73;;;-1.60;99.90;;;;;;4974541;28;20447;-69
2021/12/23 02:41:41;;;;;;;2.73;2.53;;;-1.50;99.90;;;;;;4957300;28;20454;-69
2021/12/23 02:44:07;;;;;;;8.90;4.20;;;-1.40;99.90;;;;;;4955512;28;20186;-69
2021/12/23 02:46:35;;;;;;;7.60;5.20;;;-1.50;99.90;;;;;;4953879;28;20496;-69
2021/12/23 02:49:00;;;;;;;3.60;3.00;;;-1.50;99.90;;;;;;4955195;28;20174;-69
2021/12/23 02:51:26;;;;;;;8.30;4.27;;;-1.50;99.90;;;;;;4954871;28;20456;-69
2021/12/23 02:53:51;;;;;;;6.27;5.67;;;-1.50;99.90;;;;;;4955090;28;20438;-70
2021/12/23 02:56:17;;;;;;;12.43;4.00;;;-1.50;99.90;;;;;;4955005;28;20247;-70
2021/12/23 02:58:45;;;;;;;5.27;4.20;;;-1.50;99.90;;;;;;4955282;28;20658;-70
2021/12/23 03:01:13;;;;;;;4.70;4.30;;;-1.50;99.90;;;;;;4955219;28;20277;-69
2021/12/23 03:03:39;;;;;;;7.23;6.73;;;-1.40;99.90;;;;;;4955530;28;20420;-71
2021/12/23 03:06:05;;;;;;;6.23;5.63;;;-1.50;99.90;;;;;;4954914;28;20445;-70
2021/12/23 03:08:40;;;;;;;9.17;4.37;;;-1.40;99.90;;;;;;4955125;28;20416;-69
2021/12/23 03:11:10;;;;;;;5.60;3.60;;;-1.50;99.90;;;;;;4955174;28;20533;-71
2021/12/23 03:13:37;;;;;;;5.80;4.57;;;-1.50;99.90;;;;;;4955030;28;20410;-70
2021/12/23 03:16:03;;;;;;;8.80;7.37;;;-1.50;99.90;;;;;;4954156;28;20453;-70
2021/12/23 03:18:29;;;;;;;9.13;6.23;;;-1.50;99.90;;;;;;4955103;28;20460;-71
2021/12/23 03:20:56;;;;;;;7.57;4.17;;;-1.50;99.90;;;;;;4955187;28;20509;-71
2021/12/23 03:23:22;;;;;;;5.07;4.60;;;-1.50;99.90;;;;;;4955058;28;20178;-71
2021/12/23 03:25:47;;;;;;;9.47;4.97;;;-1.60;99.90;;;;;;4954760;29;20525;-71
2021/12/23 03:28:13;;;;;;;5.00;4.60;;;-1.60;99.90;;;;;;4954593;28;20260;-71
2021/12/23 03:30:39;;;;;;;10.57;4.80;;;-1.60;99.90;;;;;;4954873;28;20277;-71
2021/12/23 03:33:05;;;;;;;4.33;3.93;;;-1.50;99.90;;;;;;4954835;28;20417;-71
2021/12/23 03:35:30;;;;;;;5.27;2.70;;;-1.60;99.90;;;;;;4954511;28;20653;-70
2021/12/23 03:37:56;;;;;;;3.17;2.97;;;-1.50;99.90;;;;;;4955012;28;20947;-71
2021/12/23 03:40:22;;;;;;;5.53;4.10;;;-1.50;99.90;;;;;;4954771;28;20170;-70
2021/12/23 03:42:47;;;;;;;4.50;3.90;;;-1.50;99.90;;;;;;4954742;28;20210;-71
2021/12/23 03:45:13;;;;;;;5.40;4.00;;;-1.60;99.90;;;;;;4954942;28;20174;-70
2021/12/23 03:47:39;;;;;;;12.07;4.43;;;-1.50;99.90;;;;;;4954713;28;20170;-70
2021/12/23 03:50:06;;;;;;;7.40;4.93;;;-1.50;99.90;;;;;;4955122;28;20178;-71
2021/12/23 03:52:32;;;;;;;3.53;3.20;;;-1.50;99.90;;;;;;4954778;28;20446;-72
2021/12/23 03:54:58;;;;;;;12.10;4.60;;;-1.50;99.90;;;;;;4954922;28;20449;-71
2021/12/23 03:57:23;;;;;;;5.87;4.33;;;-1.50;99.90;;;;;;4955043;28;20925;-71
2021/12/23 03:59:49;;;;;;;4.43;3.60;;;-1.50;99.90;;;;;;4954630;28;20163;-71
2021/12/23 04:02:15;;;;;;;6.17;4.17;;;-1.60;99.90;;;;;;4954229;28;20194;-71
2021/12/23 04:04:40;;;;;;;8.50;4.03;;;-1.60;99.90;;;;;;4955258;28;20206;-72
2021/12/23 04:07:06;;;;;;;6.97;5.97;;;-1.60;99.90;;;;;;4956296;28;20254;-70
2021/12/23 04:09:32;;;;;;;8.63;5.20;;;-1.60;99.90;;;;;;4954948;28;20170;-72
2021/12/23 04:11:58;;;;;;;29.30;4.17;;;-1.60;99.90;;;;;;4954792;28;20190;-72
2021/12/23 04:14:23;;;;;;;5.80;4.70;;;-1.60;99.90;;;;;;4954398;28;20771;-70
2021/12/23 04:16:49;;;;;;;5.07;3.40;;;-1.60;99.90;;;;;;4953141;28;20548;-70
2021/12/23 04:19:14;;;;;;;13.03;5.53;;;-1.60;99.90;;;;;;4954489;28;20190;-69
2021/12/23 04:21:41;;;;;;;8.83;6.40;;;-1.60;99.90;;;;;;4954036;28;20609;-70
2021/12/23 04:24:08;;;;;;;5.63;4.30;;;-1.60;99.90;;;;;;4953794;28;20269;-70
2021/12/23 04:26:35;;;;;;;3.97;3.67;;;-1.70;99.90;;;;;;4953373;28;20830;-71
2021/12/23 04:29:00;;;;;;;3.80;3.37;;;-1.70;99.90;;;;;;4952817;28;20465;-71
2021/12/23 04:31:26;;;;;;;4.60;4.20;;;-1.60;99.90;;;;;;4953247;28;20635;-71
2021/12/23 04:33:53;;;;;;;3.77;3.43;;;-1.60;99.90;;;;;;4953325;28;20253;-71
2021/12/23 04:36:19;;;;;;;12.40;4.33;;;-1.60;99.90;;;;;;4953008;28;20221;-71
2021/12/23 04:38:45;;;;;;;9.57;6.47;;;-1.60;99.90;;;;;;4953350;28;20495;-71
2021/12/23 04:41:12;;;;;;;8.17;5.53;;;-1.60;99.90;;;;;;4957179;28;20541;-71
2021/12/23 04:43:38;;;;;;;12.40;6.70;;;-1.50;99.90;;;;;;4972520;28;20401;-72
2021/12/23 04:46:04;;;;;;;4.90;4.50;;;-1.50;99.90;;;;;;4972402;28;20935;-69
2021/12/23 04:48:31;;;;;;;7.60;5.73;;;-1.50;99.90;;;;;;4972653;28;20417;-71
2021/12/23 04:50:57;;;;;;;4.87;3.97;;;-1.50;99.90;;;;;;4972556;28;20487;-71
2021/12/23 04:53:22;;;;;;;5.43;4.87;;;-1.50;99.90;;;;;;4972489;28;20885;-71
2021/12/23 04:55:49;;;;;;;8.80;4.53;;;-1.50;99.90;;;;;;4972776;28;20613;-71
2021/12/23 04:58:14;;;;;;;8.50;6.13;;;-1.50;99.90;;;;;;4973531;28;20546;-70
2021/12/23 05:00:42;;;;;;;7.67;4.77;;;-1.50;99.90;;;;;;4973132;28;20429;-71
2021/12/23 05:03:08;;;;;;;7.00;6.13;;;-1.40;99.90;;;;;;4973367;28;20552;-71
2021/12/23 05:05:33;;;;;;;5.30;4.90;;;-1.40;99.90;;;;;;4972965;28;20428;-71
2021/12/23 05:07:59;;;;;;;8.10;5.03;;;-1.40;99.90;;;;;;4973083;28;20413;-71
2021/12/23 05:10:25;;;;;;;4.27;3.90;;;-1.40;99.90;;;;;;4973289;28;20589;-70
2021/12/23 05:12:51;;;;;;;7.63;6.00;;;-1.40;99.90;;;;;;4973519;28;20269;-71
2021/12/23 05:15:19;;;;;;;7.20;6.17;;;-1.40;99.90;;;;;;4973398;28;20868;-71
2021/12/23 05:17:45;;;;;;;5.40;4.10;;;-1.40;99.90;;;;;;4973504;28;20281;-71
2021/12/23 05:20:12;;;;;;;6.67;5.50;;;-1.40;99.90;;;;;;4973512;28;20401;-71
2021/12/23 05:22:38;;;;;;;10.43;4.70;;;-1.40;99.90;;;;;;4972463;28;20492;-71
2021/12/23 05:25:06;;;;;;;4.87;4.33;;;-1.40;99.90;;;;;;4972167;28;20838;-71
2021/12/23 05:27:31;;;;;;;4.27;3.97;;;-1.30;99.90;;;;;;4986821;28;20594;-71
2021/12/23 05:29:57;;;;;;;15.47;6.37;;;-1.30;99.90;;;;;;4972178;28;20896;-71
2021/12/23 05:32:23;;;;;;;7.07;4.17;;;-1.30;99.90;;;;;;4971995;28;20189;-71
2021/12/23 05:34:49;;;;;;;6.00;4.40;;;-1.30;99.90;;;;;;4971985;28;20174;-71
2021/12/23 05:37:15;;;;;;;5.73;3.77;;;-1.30;99.90;;;;;;4972009;28;20416;-70
2021/12/23 05:39:40;;;;;;;8.77;5.23;;;-1.30;99.90;;;;;;4973884;28;20197;-71
2021/12/23 05:42:06;;;;;;;14.90;6.60;;;-1.30;99.90;;;;;;4975691;28;20252;-71
2021/12/23 05:44:31;;;;;;;5.50;4.37;;;-1.30;99.90;;;;;;4975624;28;20169;-70
2021/12/23 05:46:57;;;;;;;7.57;4.77;;;-1.30;99.90;;;;;;4975727;28;20165;-71
2021/12/23 05:49:22;;;;;;;7.40;5.23;;;-1.30;99.90;;;;;;4975811;28;20178;-70
2021/12/23 05:51:48;;;;;;;8.40;5.37;;;-1.30;99.90;;;;;;4975349;28;20335;-71
2021/12/23 05:54:13;;;;;;;8.03;5.20;;;-1.30;99.90;;;;;;4975372;28;20268;-70
2021/12/23 05:56:39;;;;;;;4.80;3.17;;;-1.30;99.90;;;;;;4975204;28;20197;-70
2021/12/23 05:59:04;;;;;;;25.43;4.97;;;-1.30;99.90;;;;;;4975415;28;20174;-70
2021/12/23 06:01:30;;;;;;;6.50;4.90;;;-1.20;99.90;;;;;;4975271;28;20189;-71
2021/12/23 06:03:56;;;;;;;10.17;6.80;;;-1.20;99.90;;;;;;4975197;28;20178;-72
2021/12/23 06:06:22;;;;;;;9.83;4.60;;;-1.20;99.90;;;;;;4975169;28;20479;-71
2021/12/23 06:08:48;;;;;;;8.27;4.77;;;-1.20;99.90;;;;;;4975320;28;20253;-71
2021/12/23 06:11:13;;;;;;;11.63;9.53;;;-1.20;99.90;;;;;;4975057;28;20532;-71
2021/12/23 06:13:38;;;;;;;8.73;5.23;;;-1.20;99.90;;;;;;4975058;28;20272;-71
2021/12/23 06:16:04;;;;;;;5.80;5.17;;;-1.20;99.90;;;;;;4975071;28;20693;-72
2021/12/23 06:18:29;;;;;;;12.60;6.30;;;-1.10;99.90;;;;;;4974829;28;20165;-70
2021/12/23 06:20:55;;;;;;;5.40;4.67;;;-1.10;99.90;;;;;;4974931;28;20225;-71
2021/12/23 06:23:21;;;;;;;6.10;4.70;;;-1.10;99.90;;;;;;4975285;28;20173;-71
2021/12/23 06:25:46;;;;;;;9.20;5.83;;;-1.10;99.90;;;;;;4974720;28;20281;-71
2021/12/23 06:28:12;;;;;;;11.03;4.33;;;-1.10;99.90;;;;;;4974958;28;20186;-71
2021/12/23 06:30:38;;;;;;;7.10;4.30;;;-1.10;99.90;;;;;;4974897;28;20270;-71
2021/12/23 06:33:03;;;;;;;14.83;6.07;;;-1.10;99.90;;;;;;4974742;28;20427;-71
2021/12/23 06:35:31;;;;;;;8.00;4.50;;;-1.10;99.90;;;;;;4974695;28;20252;-71
2021/12/23 06:38:00;;;;;;;5.83;5.33;;;-1.00;99.90;;;;;;4974588;28;20260;-71
2021/12/23 06:40:26;;;;;;;6.97;5.83;;;-1.00;99.90;;;;;;4974697;28;20854;-71
2021/12/23 06:42:51;;;;;;;5.50;4.97;;;-1.00;99.90;;;;;;4972206;28;20825;-70
2021/12/23 06:45:17;;;;;;;14.20;8.40;;;-1.00;99.90;;;;;;4974608;28;20224;-72
2021/12/23 06:47:44;;;;;;;8.73;6.67;;;-1.00;99.90;;;;;;4974530;28;20546;-70
2021/12/23 06:50:11;;;;;;;10.57;9.27;;;-1.00;99.90;;;;;;4974479;28;20165;-71
2021/12/23 06:52:37;;;;;;;8.93;5.20;;;-1.00;99.90;;;;;;4974166;28;20919;-71
2021/12/23 06:55:06;;;;;;;6.47;5.80;;;-1.00;99.90;;;;;;4974447;28;20507;-71
2021/12/23 06:57:31;;;;;;;8.13;6.13;;;-1.00;99.90;;;;;;4974547;28;20401;-71
2021/12/23 06:59:57;;;;;;;6.07;4.73;;;-0.90;99.90;;;;;;4974378;28;20428;-71
2021/12/23 07:02:24;;;;;;;10.33;6.60;;;-0.90;99.90;;;;;;4974550;28;20196;-71
2021/12/23 07:04:50;;;;;;;7.40;6.63;;;-0.90;99.90;;;;;;4974259;28;20169;-71
2021/12/23 07:07:26;;;;;;;5.40;4.87;;;-0.90;99.90;;;;;;4974703;28;20405;-72
2021/12/23 07:09:54;;;;;;;4.47;4.07;;;-0.90;99.90;;;;;;4974351;28;20192;-71
2021/12/23 07:12:20;;;;;;;8.93;6.80;;;-0.80;99.90;;;;;;4974618;28;20962;-72
2021/12/23 07:14:45;;;;;;;10.23;5.40;;;-0.80;99.90;;;;;;4974968;28;20405;-72
2021/12/23 07:17:11;;;;;;;4.27;3.60;;;-0.80;99.90;;;;;;4974668;28;20176;-71
2021/12/23 07:19:36;;;;;;;7.00;4.97;;;-0.80;99.90;;;;;;4974465;28;20174;-73
2021/12/23 07:22:02;;;;;;;10.63;5.50;;;-0.70;99.90;;;;;;4974229;28;20192;-71
2021/12/23 07:24:28;;;;;;;5.97;4.40;;;-0.70;99.90;;;;;;4972130;28;20339;-72
2021/12/23 07:26:54;;;;;;;7.07;4.90;;;-0.70;99.90;;;;;;4971771;28;20519;-72
2021/12/23 07:29:20;;;;;;;4.83;4.20;;;-0.70;99.90;;;;;;4966045;28;20645;-70
2021/12/23 07:31:45;;;;;;;4.33;3.83;;;-0.80;99.90;;;;;;4954333;29;20725;-71
2021/12/23 07:34:11;;;;;;;9.17;5.43;;;-0.70;99.90;;;;;;4955518;28;20457;-72
2021/12/23 07:36:37;;;;;;;5.63;4.73;;;-0.60;99.90;;;;;;4954556;28;20210;-71
2021/12/23 07:39:08;;;;;;;8.47;4.97;;;-0.60;99.90;;;;;;4956539;28;20629;-74
2021/12/23 07:41:34;;;;;;;7.17;6.40;;;-0.60;99.90;;;;;;4968261;28;20247;-72
2021/12/23 07:44:04;;;;;;;6.53;5.93;;;-0.60;99.90;;;;;;4976026;28;20405;-71
2021/12/23 07:46:32;;;;;;;6.03;4.20;;;-0.60;99.90;;;;;;4973569;28;20943;-70
2021/12/23 07:48:58;;;;;;;7.27;6.47;;;-0.50;99.90;;;;;;4973609;28;20841;-71
2021/12/23 07:51:24;;;;;;;6.77;5.20;;;-0.60;99.90;;;;;;4973489;28;20488;-72
2021/12/23 07:53:50;;;;;;;7.87;4.53;;;-0.60;99.90;;;;;;4973915;28;20690;-72
2021/12/23 07:56:16;;;;;;;12.07;8.40;;;-0.50;99.90;;;;;;4973416;28;20453;-69
2021/12/23 07:58:43;;;;;;;16.43;4.93;;;-0.60;99.90;;;;;;4972352;28;20413;-70
2021/12/23 08:01:08;;;;;;;11.23;7.20;;;-0.50;99.90;;;;;;4967594;28;20446;-71
2021/12/23 08:03:34;;;;;;;6.23;5.63;;;-0.40;99.90;;;;;;4965727;28;21061;-70
2021/12/23 08:06:00;;;;;;;7.57;3.37;;;-0.50;99.90;;;;;;4972966;28;20169;-70
2021/12/23 08:08:25;;;;;;;7.10;4.93;;;-0.40;99.90;;;;;;4954483;28;20596;-71
2021/12/23 08:10:51;;;;;;;5.87;4.93;;;-0.40;99.90;;;;;;4954256;28;20194;-73
2021/12/23 08:13:17;;;;;;;9.53;5.30;;;-0.40;99.90;;;;;;4954612;28;20241;-71
2021/12/23 08:15:43;;;;;;;5.90;4.73;;;-0.40;99.90;;;;;;4973156;28;20248;-71
2021/12/23 08:18:09;;;;;;;9.73;4.73;;;-0.50;99.90;;;;;;4972851;28;20516;-71
2021/12/23 08:20:34;;;;;;;7.53;6.87;;;-0.50;99.90;;;;;;4972588;28;21372;-71
2021/12/23 08:23:01;;;;;;;5.60;3.53;;;-0.50;99.90;;;;;;4973019;28;20421;-71
2021/12/23 08:25:26;;;;;;;11.40;6.10;;;-0.50;99.90;;;;;;4972831;28;20185;-71
2021/12/23 08:27:52;;;;;;;6.30;4.77;;;-0.40;99.90;;;;;;4973855;28;20420;-73
2021/12/23 08:30:19;;;;;;;8.20;4.73;;;-0.10;99.90;;;;;;4973286;28;20280;-72
2021/12/23 08:32:46;;;;;;;8.03;5.47;;;-0.20;99.90;;;;;;4976519;28;20176;-71
2021/12/23 08:35:12;;;;;;;5.90;5.17;;;-0.30;99.90;;;;;;4992208;28;20443;-71
2021/12/23 08:37:39;;;;;;;7.30;6.57;;;-0.40;99.90;;;;;;4992316;28;20401;-71
2021/12/23 08:40:07;;;;;;;10.37;5.97;;;-0.40;99.90;;;;;;4981302;28;20431;-70
2021/12/23 08:42:34;;;;;;;9.67;6.30;;;-0.40;99.90;;;;;;4972635;28;20471;-71
2021/12/23 08:44:59;;;;;;;13.03;6.07;;;-0.40;99.90;;;;;;4972341;28;20440;-70
2021/12/23 08:47:25;;;;;;;10.80;5.33;;;-0.40;99.90;;;;;;4972423;28;20413;-69
2021/12/23 08:49:51;;;;;;;5.70;5.17;;;-0.30;99.90;;;;;;4972540;28;20170;-69
2021/12/23 08:52:17;;;;;;;6.50;5.03;;;-0.30;99.90;;;;;;4970906;28;20208;-72
2021/12/23 08:54:42;;;;;;;5.57;5.00;;;-0.40;99.90;;;;;;4972480;28;20432;-70
2021/12/23 08:57:09;;;;;;;4.47;4.07;;;-0.30;99.90;;;;;;4970989;28;20308;-70
2021/12/23 08:59:34;;;;;;;10.93;5.47;;;-0.30;99.90;;;;;;4972340;28;20364;-70
2021/12/23 09:02:01;;;;;;;5.10;4.67;;;-0.20;99.90;;;;;;4972366;28;20885;-72
2021/12/23 09:04:26;;;;;;;5.87;5.23;;;-0.20;99.90;;;;;;4990821;23;20221;-67
2021/12/23 09:06:52;;;;;;;12.03;4.13;;;-0.20;99.90;;;;;;5010977;28;20507;-67
2021/12/23 09:09:18;;;;;;;6.30;4.40;;;-0.20;99.90;;;;;;5011237;28;20237;-69
2021/12/23 09:11:45;;;;;;;5.63;5.10;;;-0.20;99.90;;;;;;5009507;28;20211;-69
2021/12/23 09:14:11;;;;;;;6.07;4.10;;;-0.20;99.90;;;;;;5008228;28;21037;-69
2021/12/23 09:16:38;;;;;;;10.50;5.40;;;-0.10;99.90;;;;;;4995472;28;20616;-67
2021/12/23 09:19:04;;;;;;;6.27;5.63;;;-0.10;99.90;;;;;;4995838;28;20191;-69
2021/12/23 09:21:30;;;;;;;4.80;4.20;;;-0.20;99.90;;;;;;4994846;28;20420;-69
2021/12/23 09:23:56;;;;;;;10.90;5.73;;;-0.20;99.90;;;;;;4994763;28;20522;-69
2021/12/23 09:26:22;;;;;;;9.20;6.70;;;-0.10;99.90;;;;;;4994692;28;20770;-70
2021/12/23 09:29:05;;;;;;;5.37;4.87;;;0.00;99.90;;;;;;4995018;28;20415;-69
2021/12/23 09:34:15;;;;;;;6.07;3.40;;;0.00;99.90;;;;;;5001892;28;20903;-69
2021/12/23 09:36:40;;;;;;;6.00;5.57;;;0.10;99.90;;;;;;4994735;28;20566;-69
2021/12/23 09:39:08;;;;;;;7.10;5.10;;;0.10;99.90;;;;;;4994862;28;20208;-71
2021/12/23 09:41:37;;;;;;;15.10;6.27;;;0.00;99.90;;;;;;4994822;28;20263;-73
2021/12/23 09:44:04;;;;;;;10.70;5.83;;;0.20;99.90;;;;;;4994551;28;20400;-73
2021/12/23 09:46:34;;;;;;;4.30;4.00;;;0.20;99.90;;;;;;4994040;28;20458;-69
2021/12/23 09:49:00;;;;;;;6.57;5.97;;;0.30;99.90;;;;;;4993509;28;20412;-70
2021/12/23 09:51:27;;;;;;;6.87;6.17;;;0.30;99.90;;;;;;4994715;28;20765;-72
2021/12/23 09:53:57;;;;;;;7.73;7.03;;;0.40;99.90;;;;;;4994719;28;20499;-75
2021/12/23 09:56:25;;;;;;;6.87;4.03;;;0.40;99.90;;;;;;4994553;28;20942;-70
2021/12/23 09:58:51;;;;;;;9.53;4.30;;;0.40;99.90;;;;;;4994841;28;20508;-69
2021/12/23 10:01:16;;;;;;;7.80;5.43;;;0.50;99.90;;;;;;4993075;28;20774;-68
2021/12/23 10:03:42;;;;;;;8.30;6.30;;;0.60;99.90;;;;;;4994274;28;20408;-68
2021/12/23 10:06:08;;;;;;;8.80;6.73;;;0.40;99.90;;;;;;4993242;28;20290;-69
2021/12/23 10:08:33;;;;;;;7.73;4.20;;;0.50;99.90;;;;;;4994309;28;20183;-68
2021/12/23 10:30:25;;;;;;;8.00;6.17;;;0.50;99.90;;;;;;4980814;28;20421;-68
2021/12/23 10:38:33;;;;;;;5.23;4.73;;;0.60;99.90;;;;;;5013060;28;20519;-68
2021/12/23 10:41:08;;;;;;;9.60;5.60;;;0.50;99.90;;;;;;5012897;28;20419;-68
2021/12/23 10:43:41;;;;;;;8.07;4.20;;;0.50;99.90;;;;;;5013036;28;20411;-68
2021/12/23 10:46:09;;;;;;;7.07;6.30;;;0.60;99.90;;;;;;4988419;28;20510;-68
2021/12/23 10:49:05;;;;;;;9.30;6.30;;;0.60;99.90;;;;;;4993198;28;20432;-70
2021/12/23 10:52:01;;;;;;;7.30;3.90;;;0.60;99.90;;;;;;4993268;28;20459;-68
2021/12/23 11:00:25;;;;;;;4.07;3.70;;;0.70;99.90;;;;;;4993126;28;20473;-67
2021/12/23 11:03:06;;;;;;;10.13;4.07;;;0.70;99.90;;;;;;4992499;28;20566;-67
2021/12/23 11:05:37;;;;;;;14.90;4.80;;;0.70;99.90;;;;;;4991878;28;20559;-67
2021/12/23 11:08:35;;;;;;;8.40;5.80;;;0.80;99.90;;;;;;4991929;28;20968;-69
2021/12/23 11:11:16;;;;;;;4.77;4.40;;;0.70;99.90;;;;;;4992046;28;20427;-71
2021/12/23 11:27:51;;;;;;;3.80;3.60;;;1.00;99.90;;;;;;4991585;28;20467;-67
2021/12/23 11:38:59;;;;;;;4.80;3.70;;;1.10;99.90;;;;;;4990241;28;20864;-68
2021/12/23 11:43:57;;;;;;;5.63;4.23;;;1.00;99.90;;;;;;4991267;28;20503;-68
2021/12/23 11:46:34;;;;;;;10.00;4.83;;;1.00;99.90;;;;;;4991111;28;20901;-68
2021/12/23 11:49:06;;;;;;;7.87;6.43;;;1.00;99.90;;;;;;4991267;28;20467;-69
2021/12/23 11:51:51;;;;;;;8.27;5.33;;;0.90;99.90;;;;;;4990213;28;20937;-69
2021/12/23 11:54:23;;;;;;;7.60;5.90;;;1.00;99.90;;;;;;5006649;28;20442;-69
2021/12/23 11:56:51;;;;;;;5.33;4.40;;;0.90;99.90;;;;;;5011115;28;20470;-68
2021/12/23 11:59:19;;;;;;;10.80;6.90;;;1.00;99.90;;;;;;5009552;28;20407;-68
2021/12/23 12:01:48;;;;;;;7.93;4.60;;;1.10;99.90;;;;;;5010612;28;20407;-71
2021/12/23 12:04:23;;;;;;;11.17;5.50;;;1.10;99.90;;;;;;4976006;28;1003584;-68
2021/12/23 12:06:50;;;;;;;8.47;5.10;;;1.20;99.90;;;;;;4983993;28;20944;-68
2021/12/23 12:09:27;;;;;;;4.97;4.50;;;1.20;99.90;;;;;;4972553;28;20496;-68
2021/12/23 12:11:58;;;;;;;12.50;3.83;;;1.20;99.90;;;;;;4972392;28;20408;-67
2021/12/23 12:14:55;;;;;;;7.73;6.83;;;1.40;99.90;;;;;;4972166;28;20863;-67
2021/12/23 12:17:23;;;;;;;7.50;4.77;;;1.40;99.90;;;;;;4971598;28;20920;-68
2021/12/23 12:20:20;;;;;;;4.93;4.00;;;1.40;99.90;;;;;;4972460;28;20397;-68
2021/12/23 12:22:59;;;;;;;3.67;3.37;;;1.60;99.90;;;;;;4972212;28;20424;-67
2021/12/23 12:25:24;;;;;;;3.63;3.33;;;1.60;99.90;;;;;;4971943;28;20939;-67
2021/12/23 12:27:55;;;;;;;5.40;4.73;;;1.60;99.90;;;;;;4986446;28;20419;-68
2021/12/23 12:30:44;;;;;;;6.57;4.80;;;1.50;99.90;;;;;;4991612;28;20670;-68
2021/12/23 12:33:18;;;;;;;4.63;4.20;;;1.50;99.90;;;;;;4998252;28;20481;-68
2021/12/23 12:35:49;;;;;;;7.80;5.00;;;1.60;99.90;;;;;;5009559;28;20493;-68
2021/12/23 12:38:21;;;;;;;8.00;3.90;;;1.60;99.90;;;;;;5010893;28;20411;-68
2021/12/23 12:40:59;;;;;;;4.80;4.40;;;1.70;99.90;;;;;;5003616;28;20420;-68
2021/12/23 12:43:57;;;;;;;6.37;5.77;;;1.60;99.90;;;;;;4991064;28;20447;-68
2021/12/23 12:46:39;;;;;;;8.47;5.77;;;1.60;99.90;;;;;;4991027;28;20599;-67
2021/12/23 12:49:24;;;;;;;3.97;3.77;;;1.60;99.90;;;;;;4990326;28;20631;-68
2021/12/23 12:51:51;;;;;;;8.53;6.47;;;1.70;99.90;;;;;;4991244;28;20420;-69
2021/12/23 12:54:33;;;;;;;7.20;4.20;;;1.70;99.90;;;;;;4990902;28;20448;-68
2021/12/23 12:57:03;;;;;;;6.87;5.03;;;1.60;99.90;;;;;;4991184;28;20495;-68
2021/12/23 12:59:34;;;;;;;6.67;4.50;;;1.60;99.90;;;;;;4991209;28;20757;-68
2021/12/23 13:02:00;;;;;;;6.63;4.53;;;1.60;99.90;;;;;;4991063;28;20467;-68
2021/12/23 13:04:32;;;;;;;4.93;4.07;;;1.60;99.90;;;;;;4989743;28;20798;-69
2021/12/23 13:07:14;;;;;;;5.10;4.60;;;1.50;99.90;;;;;;4992104;28;20628;-69
2021/12/23 13:10:02;;;;;;;5.17;4.10;;;1.50;99.90;;;;;;4991759;28;20511;-70
2021/12/23 13:12:44;;;;;;;5.13;3.77;;;1.50;99.90;;;;;;4990748;28;20419;-67
2021/12/23 13:15:19;;;;;;;4.03;3.33;;;1.60;99.90;;;;;;4991341;28;20513;-67
2021/12/23 13:18:14;;;;;;;10.20;5.20;;;1.60;99.90;;;;;;4991325;28;20412;-68
2021/12/23 13:20:50;;;;;;;5.83;5.27;;;1.60;99.90;;;;;;4990693;28;20447;-68
2021/12/23 13:23:33;;;;;;;4.00;3.37;;;1.60;99.90;;;;;;4990857;28;20420;-68
2021/12/23 13:26:11;;;;;;;6.63;5.90;;;1.60;99.90;;;;;;4990943;28;20432;-68
2021/12/23 13:28:51;;;;;;;4.87;3.97;;;1.60;99.90;;;;;;4971594;28;20401;-67
2021/12/23 13:31:19;;;;;;;4.30;3.70;;;1.60;99.90;;;;;;4971664;28;20400;-68
2021/12/23 13:33:49;;;;;;;9.27;5.47;;;1.60;99.90;;;;;;4983493;28;20423;-68
2021/12/23 13:36:25;;;;;;;8.83;4.67;;;1.60;99.90;;;;;;4991107;28;20551;-68
2021/12/23 13:38:53;;;;;;;11.13;4.37;;;1.60;99.90;;;;;;4990878;28;20491;-68
2021/12/23 13:41:24;;;;;;;7.97;4.80;;;1.60;99.90;;;;;;4990934;28;20408;-67
2021/12/23 13:43:51;;;;;;;9.73;6.73;;;1.50;99.90;;;;;;4990447;28;21027;-67
2021/12/23 13:46:17;;;;;;;5.40;4.10;;;1.50;99.90;;;;;;4973395;28;20484;-67
2021/12/23 13:48:55;;;;;;;6.97;4.67;;;1.60;99.90;;;;;;4971675;28;20493;-68
2021/12/23 13:51:24;;;;;;;7.47;3.83;;;1.50;99.90;;;;;;4987944;28;20416;-68
2021/12/23 13:54:11;;;;;;;8.33;5.03;;;1.50;99.90;;;;;;4990864;28;20452;-68
2021/12/23 13:56:39;;;;;;;7.20;4.23;;;1.50;99.90;;;;;;4990663;28;20459;-68
2021/12/23 13:59:11;;;;;;;5.77;4.40;;;1.50;99.90;;;;;;4990637;28;20444;-68
2021/12/23 14:02:04;;;;;;;11.00;4.80;;;1.50;99.90;;;;;;4993630;28;20833;-69